sensor_id;sensor_type;location;lat;lon;timestamp;P1;durP1;ratioP1;P2;durP2;ratioP2
14373;SDS011;7270;49.004;12.066;2022-07-09T00:01:38;0.87;;;0.87;;
14373;SDS011;7270;49.004;12.066;2022-07-09T00:04:05;0.90;;;0.90;;
14373;SDS011;7270;49.004;12.066;2022-07-09T00:06:32;0.80;;;0.80;;
14373;SDS011;7270;49.004;12.066;2022-07-09T00:08:59;1.00;;;1.00;;
14373;SDS011;7270;49.004;12.066;2022-07-09T00:11:25;0.83;;;0.83;;
14373;SDS011;7270;49.004;12.066;2022-07-09T00:13:51;1.00;;;1.00;;
14373;SDS011;7270;49.004;12.066;2022-07-09T00:16:18;1.00;;;1.00;;
14373;SDS011;7270;49.004;12.066;2022-07-09T00:18:44;0.97;;;0.97;;
14373;SDS011;7270;49.004;12.066;2022-07-09T00:21:11;0.80;;;0.80;;
14373;SDS011;7270;49.004;12.066;2022-07-09T00:23:38;0.70;;;0.70;;
14373;SDS011;7270;49.004;12.066;2022-07-09T00:26:05;0.80;;;0.80;;
14373;SDS011;7270;49.004;12.066;2022-07-09T00:28:31;1.00;;;1.00;;
14373;SDS011;7270;49.004;12.066;2022-07-09T00:30:57;0.67;;;0.67;;
14373;SDS011;7270;49.004;12.066;2022-07-09T00:33:24;0.70;;;0.70;;
14373;SDS011;7270;49.004;12.066;2022-07-09T00:35:50;0.77;;;0.77;;
14373;SDS011;7270;49.004;12.066;2022-07-09T00:38:16;0.90;;;0.90;;
14373;SDS011;7270;49.004;12.066;2022-07-09T00:40:46;1.00;;;1.00;;
14373;SDS011;7270;49.004;12.066;2022-07-09T00:43:16;0.80;;;0.80;;
14373;SDS011;7270;49.004;12.066;2022-07-09T00:45:42;0.87;;;0.87;;
14373;SDS011;7270;49.004;12.066;2022-07-09T00:48:09;0.83;;;0.83;;
14373;SDS011;7270;49.004;12.066;2022-07-09T00:50:35;0.90;;;0.90;;
14373;SDS011;7270;49.004;12.066;2022-07-09T00:53:01;0.80;;;0.80;;
14373;SDS011;7270;49.004;12.066;2022-07-09T00:55:28;0.80;;;0.80;;
14373;SDS011;7270;49.004;12.066;2022-07-09T00:57:56;0.90;;;0.90;;
14373;SDS011;7270;49.004;12.066;2022-07-09T01:00:22;0.90;;;0.90;;
14373;SDS011;7270;49.004;12.066;2022-07-09T01:02:48;0.70;;;0.70;;
14373;SDS011;7270;49.004;12.066;2022-07-09T01:05:15;0.70;;;0.70;;
14373;SDS011;7270;49.004;12.066;2022-07-09T01:07:41;0.87;;;0.87;;
14373;SDS011;7270;49.004;12.066;2022-07-09T01:10:08;0.83;;;0.83;;
14373;SDS011;7270;49.004;12.066;2022-07-09T01:12:34;0.90;;;0.90;;
14373;SDS011;7270;49.004;12.066;2022-07-09T01:15:02;0.90;;;0.90;;
14373;SDS011;7270;49.004;12.066;2022-07-09T01:17:28;0.90;;;0.90;;
14373;SDS011;7270;49.004;12.066;2022-07-09T01:20:02;1.00;;;1.00;;
14373;SDS011;7270;49.004;12.066;2022-07-09T01:22:30;0.80;;;0.80;;
14373;SDS011;7270;49.004;12.066;2022-07-09T01:24:56;0.80;;;0.80;;
14373;SDS011;7270;49.004;12.066;2022-07-09T01:27:23;0.67;;;0.67;;
14373;SDS011;7270;49.004;12.066;2022-07-09T01:29:49;0.97;;;0.97;;
14373;SDS011;7270;49.004;12.066;2022-07-09T01:32:16;0.90;;;0.90;;
14373;SDS011;7270;49.004;12.066;2022-07-09T01:34:42;0.73;;;0.73;;
14373;SDS011;7270;49.004;12.066;2022-07-09T01:37:09;1.00;;;1.00;;
14373;SDS011;7270;49.004;12.066;2022-07-09T01:39:37;1.00;;;1.00;;
14373;SDS011;7270;49.004;12.066;2022-07-09T01:42:14;1.00;;;1.00;;
14373;SDS011;7270;49.004;12.066;2022-07-09T01:44:41;0.90;;;0.90;;
14373;SDS011;7270;49.004;12.066;2022-07-09T01:47:07;0.90;;;0.90;;
14373;SDS011;7270;49.004;12.066;2022-07-09T01:49:34;0.80;;;0.80;;
14373;SDS011;7270;49.004;12.066;2022-07-09T01:52:00;0.90;;;0.90;;
14373;SDS011;7270;49.004;12.066;2022-07-09T01:54:26;0.97;;;0.97;;
14373;SDS011;7270;49.004;12.066;2022-07-09T01:56:54;0.80;;;0.80;;
14373;SDS011;7270;49.004;12.066;2022-07-09T01:59:20;1.10;;;1.10;;
14373;SDS011;7270;49.004;12.066;2022-07-09T02:01:47;1.00;;;1.00;;
14373;SDS011;7270;49.004;12.066;2022-07-09T02:04:13;0.80;;;0.80;;
14373;SDS011;7270;49.004;12.066;2022-07-09T02:06:39;1.00;;;1.00;;
14373;SDS011;7270;49.004;12.066;2022-07-09T02:09:06;1.00;;;1.00;;
14373;SDS011;7270;49.004;12.066;2022-07-09T02:11:32;0.80;;;0.80;;
14373;SDS011;7270;49.004;12.066;2022-07-09T02:14:00;1.00;;;1.00;;
14373;SDS011;7270;49.004;12.066;2022-07-09T02:16:26;0.90;;;0.90;;
14373;SDS011;7270;49.004;12.066;2022-07-09T02:18:53;0.80;;;0.80;;
14373;SDS011;7270;49.004;12.066;2022-07-09T02:21:19;1.07;;;1.07;;
14373;SDS011;7270;49.004;12.066;2022-07-09T02:23:45;0.80;;;0.80;;
14373;SDS011;7270;49.004;12.066;2022-07-09T02:26:14;0.80;;;0.80;;
14373;SDS011;7270;49.004;12.066;2022-07-09T02:28:40;1.00;;;1.00;;
14373;SDS011;7270;49.004;12.066;2022-07-09T02:31:08;0.83;;;0.83;;
14373;SDS011;7270;49.004;12.066;2022-07-09T02:33:34;0.90;;;0.90;;
14373;SDS011;7270;49.004;12.066;2022-07-09T02:36:00;0.80;;;0.80;;
14373;SDS011;7270;49.004;12.066;2022-07-09T02:38:27;1.00;;;1.00;;
14373;SDS011;7270;49.004;12.066;2022-07-09T02:40:53;0.90;;;0.90;;
14373;SDS011;7270;49.004;12.066;2022-07-09T02:43:19;0.90;;;0.90;;
14373;SDS011;7270;49.004;12.066;2022-07-09T02:45:46;0.90;;;0.90;;
14373;SDS011;7270;49.004;12.066;2022-07-09T02:48:17;0.83;;;0.83;;
14373;SDS011;7270;49.004;12.066;2022-07-09T02:50:44;1.00;;;1.00;;
14373;SDS011;7270;49.004;12.066;2022-07-09T02:53:10;1.00;;;1.00;;
14373;SDS011;7270;49.004;12.066;2022-07-09T02:55:36;0.90;;;0.90;;
14373;SDS011;7270;49.004;12.066;2022-07-09T02:58:03;1.00;;;1.00;;
14373;SDS011;7270;49.004;12.066;2022-07-09T03:00:29;1.00;;;1.00;;
14373;SDS011;7270;49.004;12.066;2022-07-09T03:02:55;0.90;;;0.90;;
14373;SDS011;7270;49.004;12.066;2022-07-09T03:05:23;1.00;;;1.00;;
14373;SDS011;7270;49.004;12.066;2022-07-09T03:07:49;1.03;;;1.03;;
14373;SDS011;7270;49.004;12.066;2022-07-09T03:10:16;0.90;;;0.90;;
14373;SDS011;7270;49.004;12.066;2022-07-09T03:12:42;1.00;;;1.00;;
14373;SDS011;7270;49.004;12.066;2022-07-09T03:15:09;0.90;;;0.90;;
14373;SDS011;7270;49.004;12.066;2022-07-09T03:17:38;1.00;;;1.00;;
14373;SDS011;7270;49.004;12.066;2022-07-09T03:20:04;0.80;;;0.80;;
14373;SDS011;7270;49.004;12.066;2022-07-09T03:22:32;0.70;;;0.70;;
14373;SDS011;7270;49.004;12.066;2022-07-09T03:24:59;1.00;;;1.00;;
14373;SDS011;7270;49.004;12.066;2022-07-09T03:27:25;0.90;;;0.90;;
14373;SDS011;7270;49.004;12.066;2022-07-09T03:29:51;0.90;;;0.90;;
14373;SDS011;7270;49.004;12.066;2022-07-09T03:32:18;1.10;;;1.10;;
14373;SDS011;7270;49.004;12.066;2022-07-09T03:34:44;0.90;;;0.90;;
14373;SDS011;7270;49.004;12.066;2022-07-09T03:37:10;1.10;;;1.10;;
14373;SDS011;7270;49.004;12.066;2022-07-09T03:39:39;1.00;;;1.00;;
14373;SDS011;7270;49.004;12.066;2022-07-09T03:42:06;0.73;;;0.73;;
14373;SDS011;7270;49.004;12.066;2022-07-09T03:44:32;0.80;;;0.80;;
14373;SDS011;7270;49.004;12.066;2022-07-09T03:46:59;1.00;;;1.00;;
14373;SDS011;7270;49.004;12.066;2022-07-09T03:49:25;0.80;;;0.80;;
14373;SDS011;7270;49.004;12.066;2022-07-09T03:51:52;0.90;;;0.90;;
14373;SDS011;7270;49.004;12.066;2022-07-09T03:54:18;0.90;;;0.90;;
14373;SDS011;7270;49.004;12.066;2022-07-09T03:56:46;1.00;;;1.00;;
14373;SDS011;7270;49.004;12.066;2022-07-09T03:59:12;1.00;;;1.00;;
14373;SDS011;7270;49.004;12.066;2022-07-09T04:01:39;1.00;;;1.00;;
14373;SDS011;7270;49.004;12.066;2022-07-09T04:04:05;0.90;;;0.90;;
14373;SDS011;7270;49.004;12.066;2022-07-09T04:06:31;0.90;;;0.90;;
14373;SDS011;7270;49.004;12.066;2022-07-09T04:08:58;0.90;;;0.90;;
14373;SDS011;7270;49.004;12.066;2022-07-09T04:11:29;0.87;;;0.87;;
14373;SDS011;7270;49.004;12.066;2022-07-09T04:13:56;1.00;;;1.00;;
14373;SDS011;7270;49.004;12.066;2022-07-09T04:16:23;1.00;;;1.00;;
14373;SDS011;7270;49.004;12.066;2022-07-09T04:18:49;0.90;;;0.90;;
14373;SDS011;7270;49.004;12.066;2022-07-09T04:21:16;1.10;;;1.10;;
14373;SDS011;7270;49.004;12.066;2022-07-09T04:23:42;0.90;;;0.90;;
14373;SDS011;7270;49.004;12.066;2022-07-09T04:26:09;0.80;;;0.80;;
14373;SDS011;7270;49.004;12.066;2022-07-09T04:28:35;1.00;;;1.00;;
14373;SDS011;7270;49.004;12.066;2022-07-09T04:31:03;1.00;;;1.00;;
14373;SDS011;7270;49.004;12.066;2022-07-09T04:33:29;1.10;;;1.10;;
14373;SDS011;7270;49.004;12.066;2022-07-09T04:35:56;0.90;;;0.90;;
14373;SDS011;7270;49.004;12.066;2022-07-09T04:38:22;0.97;;;0.97;;
14373;SDS011;7270;49.004;12.066;2022-07-09T04:40:49;0.90;;;0.90;;
14373;SDS011;7270;49.004;12.066;2022-07-09T04:43:16;1.00;;;1.00;;
14373;SDS011;7270;49.004;12.066;2022-07-09T04:45:43;0.87;;;0.87;;
14373;SDS011;7270;49.004;12.066;2022-07-09T04:48:10;1.00;;;1.00;;
14373;SDS011;7270;49.004;12.066;2022-07-09T04:50:37;1.00;;;1.00;;
14373;SDS011;7270;49.004;12.066;2022-07-09T04:53:03;0.90;;;0.90;;
14373;SDS011;7270;49.004;12.066;2022-07-09T04:55:30;0.90;;;0.90;;
14373;SDS011;7270;49.004;12.066;2022-07-09T04:57:56;0.90;;;0.90;;
14373;SDS011;7270;49.004;12.066;2022-07-09T05:00:22;0.80;;;0.80;;
14373;SDS011;7270;49.004;12.066;2022-07-09T05:02:49;1.10;;;1.10;;
14373;SDS011;7270;49.004;12.066;2022-07-09T05:05:16;1.00;;;1.00;;
14373;SDS011;7270;49.004;12.066;2022-07-09T05:07:47;1.07;;;1.07;;
14373;SDS011;7270;49.004;12.066;2022-07-09T05:10:13;0.90;;;0.90;;
14373;SDS011;7270;49.004;12.066;2022-07-09T05:12:40;0.90;;;0.90;;
14373;SDS011;7270;49.004;12.066;2022-07-09T05:15:06;0.90;;;0.90;;
14373;SDS011;7270;49.004;12.066;2022-07-09T05:17:33;1.00;;;1.00;;
14373;SDS011;7270;49.004;12.066;2022-07-09T05:20:00;0.90;;;0.90;;
14373;SDS011;7270;49.004;12.066;2022-07-09T05:22:30;0.90;;;0.90;;
14373;SDS011;7270;49.004;12.066;2022-07-09T05:24:56;1.00;;;1.00;;
14373;SDS011;7270;49.004;12.066;2022-07-09T05:27:22;0.90;;;0.90;;
14373;SDS011;7270;49.004;12.066;2022-07-09T05:29:49;0.90;;;0.90;;
14373;SDS011;7270;49.004;12.066;2022-07-09T05:32:15;0.83;;;0.83;;
14373;SDS011;7270;49.004;12.066;2022-07-09T05:34:42;0.90;;;0.90;;
14373;SDS011;7270;49.004;12.066;2022-07-09T05:37:08;0.90;;;0.90;;
14373;SDS011;7270;49.004;12.066;2022-07-09T05:39:36;0.80;;;0.80;;
14373;SDS011;7270;49.004;12.066;2022-07-09T05:42:03;1.00;;;1.00;;
14373;SDS011;7270;49.004;12.066;2022-07-09T05:44:29;0.80;;;0.80;;
14373;SDS011;7270;49.004;12.066;2022-07-09T05:46:56;0.90;;;0.90;;
14373;SDS011;7270;49.004;12.066;2022-07-09T05:49:22;1.00;;;1.00;;
14373;SDS011;7270;49.004;12.066;2022-07-09T05:51:49;0.80;;;0.80;;
14373;SDS011;7270;49.004;12.066;2022-07-09T05:54:15;1.00;;;1.00;;
14373;SDS011;7270;49.004;12.066;2022-07-09T05:56:43;0.90;;;0.90;;
14373;SDS011;7270;49.004;12.066;2022-07-09T05:59:09;0.90;;;0.90;;
14373;SDS011;7270;49.004;12.066;2022-07-09T06:01:35;0.90;;;0.90;;
14373;SDS011;7270;49.004;12.066;2022-07-09T06:04:04;0.97;;;0.97;;
14373;SDS011;7270;49.004;12.066;2022-07-09T06:06:32;1.00;;;1.00;;
14373;SDS011;7270;49.004;12.066;2022-07-09T06:08:58;0.90;;;0.90;;
14373;SDS011;7270;49.004;12.066;2022-07-09T06:11:25;0.90;;;0.90;;
14373;SDS011;7270;49.004;12.066;2022-07-09T06:13:53;0.80;;;0.80;;
14373;SDS011;7270;49.004;12.066;2022-07-09T06:16:19;0.90;;;0.90;;
14373;SDS011;7270;49.004;12.066;2022-07-09T06:18:45;0.90;;;0.90;;
14373;SDS011;7270;49.004;12.066;2022-07-09T06:21:12;0.90;;;0.90;;
14373;SDS011;7270;49.004;12.066;2022-07-09T06:23:38;0.93;;;0.93;;
14373;SDS011;7270;49.004;12.066;2022-07-09T06:26:05;1.00;;;1.00;;
14373;SDS011;7270;49.004;12.066;2022-07-09T06:28:31;0.90;;;0.90;;
14373;SDS011;7270;49.004;12.066;2022-07-09T06:30:59;1.00;;;1.00;;
14373;SDS011;7270;49.004;12.066;2022-07-09T06:33:26;0.80;;;0.80;;
14373;SDS011;7270;49.004;12.066;2022-07-09T06:35:52;1.00;;;1.00;;
14373;SDS011;7270;49.004;12.066;2022-07-09T06:38:18;1.00;;;1.00;;
14373;SDS011;7270;49.004;12.066;2022-07-09T06:40:45;1.00;;;1.00;;
14373;SDS011;7270;49.004;12.066;2022-07-09T06:43:11;1.00;;;1.00;;
14373;SDS011;7270;49.004;12.066;2022-07-09T06:45:38;0.97;;;0.97;;
14373;SDS011;7270;49.004;12.066;2022-07-09T06:48:06;0.90;;;0.90;;
14373;SDS011;7270;49.004;12.066;2022-07-09T06:50:32;0.83;;;0.83;;
14373;SDS011;7270;49.004;12.066;2022-07-09T06:52:58;0.90;;;0.90;;
14373;SDS011;7270;49.004;12.066;2022-07-09T06:55:25;1.00;;;1.00;;
14373;SDS011;7270;49.004;12.066;2022-07-09T06:57:51;0.97;;;0.97;;
14373;SDS011;7270;49.004;12.066;2022-07-09T07:00:18;1.00;;;1.00;;
14373;SDS011;7270;49.004;12.066;2022-07-09T07:02:44;1.00;;;1.00;;
14373;SDS011;7270;49.004;12.066;2022-07-09T07:05:12;1.10;;;1.10;;
14373;SDS011;7270;49.004;12.066;2022-07-09T07:07:38;1.00;;;1.00;;
14373;SDS011;7270;49.004;12.066;2022-07-09T07:10:05;1.10;;;1.10;;
14373;SDS011;7270;49.004;12.066;2022-07-09T07:12:31;1.10;;;1.10;;
14373;SDS011;7270;49.004;12.066;2022-07-09T07:14:58;1.10;;;1.10;;
14373;SDS011;7270;49.004;12.066;2022-07-09T07:17:24;1.00;;;1.00;;
14373;SDS011;7270;49.004;12.066;2022-07-09T07:19:51;1.00;;;1.00;;
14373;SDS011;7270;49.004;12.066;2022-07-09T07:22:18;1.10;;;1.10;;
14373;SDS011;7270;49.004;12.066;2022-07-09T07:24:45;1.00;;;1.00;;
14373;SDS011;7270;49.004;12.066;2022-07-09T07:27:11;1.10;;;1.10;;
14373;SDS011;7270;49.004;12.066;2022-07-09T07:29:38;1.10;;;1.10;;
14373;SDS011;7270;49.004;12.066;2022-07-09T07:32:04;0.90;;;0.90;;
14373;SDS011;7270;49.004;12.066;2022-07-09T07:34:31;1.10;;;1.10;;
14373;SDS011;7270;49.004;12.066;2022-07-09T07:36:57;1.30;;;1.20;;
14373;SDS011;7270;49.004;12.066;2022-07-09T07:39:25;2.13;;;2.03;;
14373;SDS011;7270;49.004;12.066;2022-07-09T07:41:54;1.50;;;1.40;;
14373;SDS011;7270;49.004;12.066;2022-07-09T07:44:21;1.80;;;1.70;;
14373;SDS011;7270;49.004;12.066;2022-07-09T07:46:48;1.80;;;1.70;;
14373;SDS011;7270;49.004;12.066;2022-07-09T07:49:14;1.90;;;1.80;;
14373;SDS011;7270;49.004;12.066;2022-07-09T07:51:40;2.07;;;1.97;;
14373;SDS011;7270;49.004;12.066;2022-07-09T07:54:07;1.80;;;1.70;;
14373;SDS011;7270;49.004;12.066;2022-07-09T07:56:35;1.40;;;1.30;;
14373;SDS011;7270;49.004;12.066;2022-07-09T07:59:04;1.40;;;1.30;;
14373;SDS011;7270;49.004;12.066;2022-07-09T08:01:31;1.40;;;1.30;;
14373;SDS011;7270;49.004;12.066;2022-07-09T08:03:57;1.40;;;1.30;;
14373;SDS011;7270;49.004;12.066;2022-07-09T08:06:23;1.30;;;1.20;;
14373;SDS011;7270;49.004;12.066;2022-07-09T08:08:50;1.10;;;1.10;;
14373;SDS011;7270;49.004;12.066;2022-07-09T08:11:17;1.17;;;1.17;;
14373;SDS011;7270;49.004;12.066;2022-07-09T08:13:45;1.20;;;1.20;;
14373;SDS011;7270;49.004;12.066;2022-07-09T08:16:11;1.20;;;1.20;;
14373;SDS011;7270;49.004;12.066;2022-07-09T08:18:38;1.20;;;1.20;;
14373;SDS011;7270;49.004;12.066;2022-07-09T08:21:04;1.10;;;1.10;;
14373;SDS011;7270;49.004;12.066;2022-07-09T08:23:31;1.40;;;1.30;;
14373;SDS011;7270;49.004;12.066;2022-07-09T08:26:16;1.20;;;1.20;;
14373;SDS011;7270;49.004;12.066;2022-07-09T08:28:42;1.20;;;1.20;;
14373;SDS011;7270;49.004;12.066;2022-07-09T08:31:10;1.10;;;1.10;;
14373;SDS011;7270;49.004;12.066;2022-07-09T08:33:36;1.40;;;1.30;;
14373;SDS011;7270;49.004;12.066;2022-07-09T08:36:03;1.10;;;1.10;;
14373;SDS011;7270;49.004;12.066;2022-07-09T08:38:29;1.10;;;1.10;;
14373;SDS011;7270;49.004;12.066;2022-07-09T08:40:56;1.10;;;1.10;;
14373;SDS011;7270;49.004;12.066;2022-07-09T08:43:24;1.40;;;1.30;;
14373;SDS011;7270;49.004;12.066;2022-07-09T08:45:52;1.10;;;1.10;;
14373;SDS011;7270;49.004;12.066;2022-07-09T08:48:21;1.10;;;1.10;;
14373;SDS011;7270;49.004;12.066;2022-07-09T08:50:48;1.20;;;1.20;;
14373;SDS011;7270;49.004;12.066;2022-07-09T08:53:15;1.10;;;1.10;;
14373;SDS011;7270;49.004;12.066;2022-07-09T08:55:42;1.20;;;1.20;;
14373;SDS011;7270;49.004;12.066;2022-07-09T08:58:09;1.30;;;1.20;;
14373;SDS011;7270;49.004;12.066;2022-07-09T09:00:36;1.20;;;1.20;;
14373;SDS011;7270;49.004;12.066;2022-07-09T09:03:02;1.40;;;1.30;;
14373;SDS011;7270;49.004;12.066;2022-07-09T09:05:30;1.40;;;1.30;;
14373;SDS011;7270;49.004;12.066;2022-07-09T09:07:56;1.80;;;1.70;;
14373;SDS011;7270;49.004;12.066;2022-07-09T09:10:24;1.97;;;1.87;;
14373;SDS011;7270;49.004;12.066;2022-07-09T09:12:55;1.50;;;1.40;;
14373;SDS011;7270;49.004;12.066;2022-07-09T09:15:21;1.40;;;1.30;;
14373;SDS011;7270;49.004;12.066;2022-07-09T09:17:48;1.20;;;1.20;;
14373;SDS011;7270;49.004;12.066;2022-07-09T09:20:14;1.20;;;1.20;;
14373;SDS011;7270;49.004;12.066;2022-07-09T09:22:46;1.30;;;1.30;;
14373;SDS011;7270;49.004;12.066;2022-07-09T09:25:16;1.23;;;1.20;;
14373;SDS011;7270;49.004;12.066;2022-07-09T09:27:49;1.20;;;1.20;;
14373;SDS011;7270;49.004;12.066;2022-07-09T09:30:16;1.00;;;1.00;;
14373;SDS011;7270;49.004;12.066;2022-07-09T09:32:42;1.10;;;1.10;;
14373;SDS011;7270;49.004;12.066;2022-07-09T09:35:08;1.10;;;1.10;;
14373;SDS011;7270;49.004;12.066;2022-07-09T09:37:35;1.10;;;1.10;;
14373;SDS011;7270;49.004;12.066;2022-07-09T09:40:08;1.10;;;1.10;;
14373;SDS011;7270;49.004;12.066;2022-07-09T09:42:36;1.20;;;1.20;;
14373;SDS011;7270;49.004;12.066;2022-07-09T09:45:04;1.40;;;1.30;;
14373;SDS011;7270;49.004;12.066;2022-07-09T09:47:31;1.40;;;1.30;;
14373;SDS011;7270;49.004;12.066;2022-07-09T09:50:00;1.60;;;1.50;;
14373;SDS011;7270;49.004;12.066;2022-07-09T09:52:27;1.60;;;1.50;;
14373;SDS011;7270;49.004;12.066;2022-07-09T09:54:54;1.90;;;1.80;;
14373;SDS011;7270;49.004;12.066;2022-07-09T09:57:22;1.90;;;1.80;;
14373;SDS011;7270;49.004;12.066;2022-07-09T09:59:52;1.70;;;1.60;;
14373;SDS011;7270;49.004;12.066;2022-07-09T10:02:19;1.70;;;1.60;;
14373;SDS011;7270;49.004;12.066;2022-07-09T10:04:46;1.90;;;1.80;;
14373;SDS011;7270;49.004;12.066;2022-07-09T10:07:13;1.80;;;1.70;;
14373;SDS011;7270;49.004;12.066;2022-07-09T10:09:40;2.20;;;2.10;;
14373;SDS011;7270;49.004;12.066;2022-07-09T10:12:07;2.10;;;2.00;;
14373;SDS011;7270;49.004;12.066;2022-07-09T10:14:36;2.30;;;2.20;;
14373;SDS011;7270;49.004;12.066;2022-07-09T10:17:09;2.70;;;2.60;;
14373;SDS011;7270;49.004;12.066;2022-07-09T10:19:37;3.17;;;2.97;;
14373;SDS011;7270;49.004;12.066;2022-07-09T10:22:03;2.83;;;2.72;;
14373;SDS011;7270;49.004;12.066;2022-07-09T10:24:30;3.58;;;3.38;;
14373;SDS011;7270;49.004;12.066;2022-07-09T10:27:04;3.85;;;3.65;;
14373;SDS011;7270;49.004;12.066;2022-07-09T10:29:31;21.15;;;20.13;;
14373;SDS011;7270;49.004;12.066;2022-07-09T10:31:59;9.18;;;8.73;;
14373;SDS011;7270;49.004;12.066;2022-07-09T10:34:43;8.23;;;7.72;;
14373;SDS011;7270;49.004;12.066;2022-07-09T10:37:10;8.93;;;8.45;;
14373;SDS011;7270;49.004;12.066;2022-07-09T10:39:37;6.18;;;5.88;;
14373;SDS011;7270;49.004;12.066;2022-07-09T10:42:04;5.35;;;5.05;;
14373;SDS011;7270;49.004;12.066;2022-07-09T10:44:34;4.13;;;3.90;;
14373;SDS011;7270;49.004;12.066;2022-07-09T10:47:02;2.50;;;2.40;;
14373;SDS011;7270;49.004;12.066;2022-07-09T10:49:29;2.00;;;1.90;;
14373;SDS011;7270;49.004;12.066;2022-07-09T10:51:55;1.90;;;1.80;;
14373;SDS011;7270;49.004;12.066;2022-07-09T10:54:23;1.70;;;1.60;;
14373;SDS011;7270;49.004;12.066;2022-07-09T10:56:49;1.40;;;1.30;;
14373;SDS011;7270;49.004;12.066;2022-07-09T10:59:16;1.53;;;1.43;;
14373;SDS011;7270;49.004;12.066;2022-07-09T11:01:43;1.40;;;1.30;;
14373;SDS011;7270;49.004;12.066;2022-07-09T11:04:10;1.37;;;1.27;;
14373;SDS011;7270;49.004;12.066;2022-07-09T11:06:43;1.40;;;1.30;;
14373;SDS011;7270;49.004;12.066;2022-07-09T11:09:13;1.37;;;1.27;;
14373;SDS011;7270;49.004;12.066;2022-07-09T11:11:41;1.40;;;1.30;;
14373;SDS011;7270;49.004;12.066;2022-07-09T11:14:07;1.10;;;1.10;;
14373;SDS011;7270;49.004;12.066;2022-07-09T11:16:34;1.40;;;1.30;;
14373;SDS011;7270;49.004;12.066;2022-07-09T11:19:07;1.30;;;1.20;;
14373;SDS011;7270;49.004;12.066;2022-07-09T11:21:39;1.20;;;1.20;;
14373;SDS011;7270;49.004;12.066;2022-07-09T11:24:11;1.20;;;1.20;;
14373;SDS011;7270;49.004;12.066;2022-07-09T11:26:38;1.20;;;1.20;;
14373;SDS011;7270;49.004;12.066;2022-07-09T11:29:05;1.20;;;1.20;;
14373;SDS011;7270;49.004;12.066;2022-07-09T11:31:32;1.20;;;1.20;;
14373;SDS011;7270;49.004;12.066;2022-07-09T11:33:59;1.10;;;1.10;;
14373;SDS011;7270;49.004;12.066;2022-07-09T11:36:39;1.33;;;1.30;;
14373;SDS011;7270;49.004;12.066;2022-07-09T11:39:06;1.10;;;1.10;;
14373;SDS011;7270;49.004;12.066;2022-07-09T11:41:39;1.10;;;1.10;;
14373;SDS011;7270;49.004;12.066;2022-07-09T11:44:05;1.40;;;1.30;;
14373;SDS011;7270;49.004;12.066;2022-07-09T11:46:32;1.10;;;1.10;;
14373;SDS011;7270;49.004;12.066;2022-07-09T11:48:58;1.10;;;1.10;;
14373;SDS011;7270;49.004;12.066;2022-07-09T11:51:28;1.20;;;1.20;;
14373;SDS011;7270;49.004;12.066;2022-07-09T11:53:56;1.23;;;1.23;;
14373;SDS011;7270;49.004;12.066;2022-07-09T11:56:22;1.20;;;1.20;;
14373;SDS011;7270;49.004;12.066;2022-07-09T11:58:49;1.10;;;1.10;;
14373;SDS011;7270;49.004;12.066;2022-07-09T12:01:15;1.20;;;1.20;;
14373;SDS011;7270;49.004;12.066;2022-07-09T12:03:46;1.30;;;1.20;;
14373;SDS011;7270;49.004;12.066;2022-07-09T12:06:12;1.40;;;1.30;;
14373;SDS011;7270;49.004;12.066;2022-07-09T12:08:40;1.23;;;1.20;;
14373;SDS011;7270;49.004;12.066;2022-07-09T12:11:08;1.40;;;1.30;;
14373;SDS011;7270;49.004;12.066;2022-07-09T12:13:34;1.40;;;1.30;;
14373;SDS011;7270;49.004;12.066;2022-07-09T12:16:01;1.40;;;1.30;;
14373;SDS011;7270;49.004;12.066;2022-07-09T12:18:27;1.40;;;1.30;;
14373;SDS011;7270;49.004;12.066;2022-07-09T12:20:54;1.40;;;1.30;;
14373;SDS011;7270;49.004;12.066;2022-07-09T12:23:21;1.30;;;1.30;;
14373;SDS011;7270;49.004;12.066;2022-07-09T12:25:47;1.20;;;1.20;;
14373;SDS011;7270;49.004;12.066;2022-07-09T12:28:15;1.20;;;1.20;;
14373;SDS011;7270;49.004;12.066;2022-07-09T12:30:41;1.33;;;1.30;;
14373;SDS011;7270;49.004;12.066;2022-07-09T12:33:11;1.20;;;1.20;;
14373;SDS011;7270;49.004;12.066;2022-07-09T12:35:37;1.30;;;1.20;;
14373;SDS011;7270;49.004;12.066;2022-07-09T12:38:04;1.10;;;1.10;;
14373;SDS011;7270;49.004;12.066;2022-07-09T12:40:30;1.20;;;1.20;;
14373;SDS011;7270;49.004;12.066;2022-07-09T12:42:57;1.30;;;1.20;;
14373;SDS011;7270;49.004;12.066;2022-07-09T12:45:25;1.40;;;1.30;;
14373;SDS011;7270;49.004;12.066;2022-07-09T12:47:51;1.10;;;1.10;;
14373;SDS011;7270;49.004;12.066;2022-07-09T12:50:18;1.10;;;1.10;;
14373;SDS011;7270;49.004;12.066;2022-07-09T12:52:44;1.10;;;1.10;;
14373;SDS011;7270;49.004;12.066;2022-07-09T12:55:11;1.40;;;1.30;;
14373;SDS011;7270;49.004;12.066;2022-07-09T12:57:37;1.20;;;1.20;;
14373;SDS011;7270;49.004;12.066;2022-07-09T13:00:04;1.20;;;1.20;;
14373;SDS011;7270;49.004;12.066;2022-07-09T13:02:32;1.30;;;1.23;;
14373;SDS011;7270;49.004;12.066;2022-07-09T13:04:59;1.20;;;1.20;;
14373;SDS011;7270;49.004;12.066;2022-07-09T13:07:25;1.07;;;1.07;;
14373;SDS011;7270;49.004;12.066;2022-07-09T13:09:52;1.10;;;1.10;;
14373;SDS011;7270;49.004;12.066;2022-07-09T13:12:18;1.40;;;1.30;;
14373;SDS011;7270;49.004;12.066;2022-07-09T13:14:45;1.20;;;1.20;;
14373;SDS011;7270;49.004;12.066;2022-07-09T13:17:11;1.20;;;1.20;;
14373;SDS011;7270;49.004;12.066;2022-07-09T13:19:39;1.10;;;1.10;;
14373;SDS011;7270;49.004;12.066;2022-07-09T13:22:06;1.17;;;1.17;;
14373;SDS011;7270;49.004;12.066;2022-07-09T13:24:34;1.10;;;1.10;;
14373;SDS011;7270;49.004;12.066;2022-07-09T13:27:00;1.00;;;1.00;;
14373;SDS011;7270;49.004;12.066;2022-07-09T13:29:27;1.10;;;1.10;;
14373;SDS011;7270;49.004;12.066;2022-07-09T13:31:54;1.10;;;1.10;;
14373;SDS011;7270;49.004;12.066;2022-07-09T13:34:20;1.10;;;1.10;;
14373;SDS011;7270;49.004;12.066;2022-07-09T13:36:48;1.10;;;1.10;;
14373;SDS011;7270;49.004;12.066;2022-07-09T13:39:14;1.10;;;1.10;;
14373;SDS011;7270;49.004;12.066;2022-07-09T13:41:41;1.20;;;1.20;;
14373;SDS011;7270;49.004;12.066;2022-07-09T13:44:07;1.10;;;1.10;;
14373;SDS011;7270;49.004;12.066;2022-07-09T13:46:33;1.10;;;1.10;;
14373;SDS011;7270;49.004;12.066;2022-07-09T13:49:00;1.20;;;1.20;;
14373;SDS011;7270;49.004;12.066;2022-07-09T13:51:26;1.13;;;1.13;;
14373;SDS011;7270;49.004;12.066;2022-07-09T13:53:54;1.10;;;1.10;;
14373;SDS011;7270;49.004;12.066;2022-07-09T13:56:20;1.10;;;1.10;;
14373;SDS011;7270;49.004;12.066;2022-07-09T13:58:47;1.10;;;1.10;;
14373;SDS011;7270;49.004;12.066;2022-07-09T14:01:13;1.10;;;1.10;;
14373;SDS011;7270;49.004;12.066;2022-07-09T14:03:40;1.20;;;1.20;;
14373;SDS011;7270;49.004;12.066;2022-07-09T14:06:07;1.10;;;1.10;;
14373;SDS011;7270;49.004;12.066;2022-07-09T14:08:35;1.13;;;1.13;;
14373;SDS011;7270;49.004;12.066;2022-07-09T14:11:03;1.10;;;1.10;;
14373;SDS011;7270;49.004;12.066;2022-07-09T14:13:29;1.03;;;1.03;;
14373;SDS011;7270;49.004;12.066;2022-07-09T14:15:56;1.10;;;1.10;;
14373;SDS011;7270;49.004;12.066;2022-07-09T14:18:24;1.20;;;1.20;;
14373;SDS011;7270;49.004;12.066;2022-07-09T14:20:50;1.20;;;1.20;;
14373;SDS011;7270;49.004;12.066;2022-07-09T14:23:16;1.10;;;1.10;;
14373;SDS011;7270;49.004;12.066;2022-07-09T14:25:43;1.20;;;1.20;;
14373;SDS011;7270;49.004;12.066;2022-07-09T14:28:11;1.10;;;1.10;;
14373;SDS011;7270;49.004;12.066;2022-07-09T14:30:37;1.00;;;1.00;;
14373;SDS011;7270;49.004;12.066;2022-07-09T14:33:04;1.20;;;1.20;;
14373;SDS011;7270;49.004;12.066;2022-07-09T14:35:30;1.00;;;1.00;;
14373;SDS011;7270;49.004;12.066;2022-07-09T14:37:58;1.20;;;1.20;;
14373;SDS011;7270;49.004;12.066;2022-07-09T14:40:24;1.20;;;1.20;;
14373;SDS011;7270;49.004;12.066;2022-07-09T14:42:50;1.20;;;1.20;;
14373;SDS011;7270;49.004;12.066;2022-07-09T14:45:18;1.10;;;1.10;;
14373;SDS011;7270;49.004;12.066;2022-07-09T14:47:45;1.10;;;1.10;;